Terminal Aerodrome Forecast
Issued by NWS Cleveland, OH

Home | Current Version | Previous Version | Graphics & Text | Print | Product List | Glossary On
Versions: 1 2 3 4 5 6 7 8 9 10 11 12 13 14 15
000
FTUS41 KCLE 021139
TAFMFD
TAF
KMFD 021139Z 0212/0312 23010KT P6SM SCT050
     FM021700 22012G20KT P6SM SCT050
     FM030000 22012KT P6SM BKN200
     FM030600 21014KT P6SM VCSH BKN060=

USA.gov is the U.S. government's official web portal to all federal, state and local government web resources and services.